Pampa, TX

2:25 AM CDT on August 23, 2017 (GMT -0500)
Perry Lefors

Weather History for KPPA - July, 2013

Change the Weather History Date:

Tuesday, July 2, 2013

  Actual Average Record
Temperature  
Mean Temperature 67 °F -  
Max Temperature 82 °F 91 °F 108 °F (1980)
Min Temperature 52 °F 66 °F 52 °F (2013)
Cooling Degree Days 2    
Growing Degree Days 17 (Base 50)    
Moisture  
Dew Point 37 °F    
Average Humidity 33    
Maximum Humidity 63    
Minimum Humidity 17    
Precipitation  
Precipitation 0.00 in - - ()
Sea Level Pressure  
Sea Level Pressure 30.21 in    
Wind  
Wind Speed 5 mph (ESE)    
Max Wind Speed 14 mph    
Max Gust Speed 21 mph    
Visibility 9 miles    
Events      
Averages and records for this station are not official NWS values.
T = Trace of Precipitation, MM = Missing Value Source: NWS Daily Summary

Daily Weather History Graph

Daily Weather History Graph

Search for Another Location

Airport or City:

Trip Planner

Search our weather history database for the weather conditions in past years. The results will help you decide how hot, cold, wet, or windy it might be!

Date:

Astronomy

Jul. 02, 2013 Rise Set
Actual Time 6:32 AM CDT 9:03 PM CDT
Civil Twilight 6:02 AM CDT 9:33 PM CDT
Nautical Twilight 5:25 AM CDT 10:10 PM CDT
Astronomical Twilight 4:44 AM CDT 10:51 PM CDT
Moon 2:30 AM CDT (7/2) 4:23 PM CDT (7/2)
Length of Visible Light 15h 30m
Length of Day
14h 30m
Waning Crescent, 26% of the Moon is Illuminated
Jul 2
Waning Crescent
Jul 8
New
Jul 15
First Quarter
Jul 22
Full
Jul 29
Last Quarter

Hourly Weather History & Observations

Time (CDT) Temp. Dew Point Humidity Pressure Visibility Wind Dir Wind Speed Gust Speed Precip Events Conditions
12:15 AM 62.6 °F 41.0 °F 45% 30.24 in 10.0 mi ESE 5.8 mph - N/A   Clear
12:35 AM 62.6 °F 40.5 °F 44% 30.24 in 10.0 mi ESE 5.8 mph - N/A   Clear
12:55 AM 62.8 °F 40.5 °F 44% 30.24 in 10.0 mi ESE 5.8 mph - N/A   Clear
1:15 AM 62.4 °F 40.3 °F 44% 30.24 in 10.0 mi ESE 5.8 mph - N/A   Clear
1:35 AM 58.8 °F 40.8 °F 51% 30.24 in 10.0 mi SSE 4.6 mph - N/A   Clear
1:55 AM 59.2 °F 40.6 °F 50% 30.24 in 10.0 mi SE 5.8 mph - N/A   Clear
2:15 AM 60.4 °F 40.1 °F 47% 30.24 in 7.0 mi SE 4.6 mph - N/A   Clear
2:35 AM 61.7 °F 38.8 °F 43% 30.24 in 7.0 mi ESE 5.8 mph - N/A   Clear
2:55 AM 61.3 °F 38.8 °F 43% 30.24 in 7.0 mi SE 4.6 mph - N/A   Clear
3:15 AM 61.3 °F 38.7 °F 43% 30.23 in 7.0 mi ESE 4.6 mph - N/A   Clear
3:35 AM 61.3 °F 38.3 °F 43% 30.23 in 7.0 mi ESE 4.6 mph - N/A   Clear
3:55 AM 59.5 °F 38.8 °F 46% 30.23 in 7.0 mi SE 3.5 mph - N/A   Clear
4:15 AM 59.7 °F 38.5 °F 45% 30.23 in 7.0 mi ESE 3.5 mph - N/A   Clear
4:35 AM 59.9 °F 38.7 °F 45% 30.23 in 7.0 mi SE 3.5 mph - N/A   Clear
4:55 AM 60.6 °F 37.4 °F 42% 30.23 in 7.0 mi SE 3.5 mph - N/A   Clear
5:15 AM 54.7 °F 40.1 °F 58% 30.23 in 7.0 mi SE 3.5 mph - N/A   Clear
5:35 AM 52.5 °F 40.3 °F 63% 30.24 in 7.0 mi South 4.6 mph - N/A   Clear
5:55 AM 52.3 °F 40.1 °F 63% 30.24 in 7.0 mi South 4.6 mph - N/A   Clear
6:15 AM 53.4 °F 39.6 °F 59% 30.25 in 7.0 mi WSW 3.5 mph - N/A   Clear
6:35 AM 55.4 °F 39.9 °F 56% 30.25 in 7.0 mi WSW 3.5 mph - N/A   Clear
6:55 AM 57.6 °F 39.4 °F 51% 30.25 in 7.0 mi Calm Calm - N/A   Clear
7:15 AM 58.6 °F 38.8 °F 48% 30.25 in 7.0 mi Calm Calm - N/A   Clear
7:35 AM 58.3 °F 42.1 °F 55% 30.26 in 5.0 mi Calm Calm - N/A   Haze
7:55 AM 61.2 °F 43.7 °F 53% 30.26 in 7.0 mi Calm Calm - N/A   Clear
8:15 AM 64.9 °F 39.9 °F 40% 30.26 in 7.0 mi Calm Calm - N/A   Clear
8:35 AM 67.6 °F 37.8 °F 33% 30.27 in 7.0 mi ESE 3.5 mph - N/A   Clear
8:55 AM 69.3 °F 37.8 °F 32% 30.27 in 10.0 mi SE 4.6 mph - N/A   Clear
9:15 AM 70.0 °F 37.9 °F 31% 30.27 in 10.0 mi Calm Calm - N/A   Clear
9:35 AM 70.7 °F 37.4 °F 30% 30.27 in 10.0 mi Calm Calm - N/A   Clear
9:55 AM 71.8 °F 39.4 °F 31% 30.27 in 7.0 mi Calm Calm - N/A   Clear
10:15 AM 72.0 °F 38.5 °F 30% 30.27 in 7.0 mi Calm Calm - N/A   Clear
10:35 AM 73.4 °F 37.8 °F 27% 30.27 in 10.0 mi South 4.6 mph - N/A   Clear
10:55 AM 73.8 °F 37.2 °F 27% 30.27 in 10.0 mi ENE 6.9 mph - N/A   Clear
11:15 AM 74.1 °F 37.4 °F 26% 30.27 in 10.0 mi NNE 4.6 mph - N/A   Clear
11:35 AM 74.7 °F 37.6 °F 26% 30.27 in 10.0 mi Calm Calm - N/A   Clear
11:55 AM 76.6 °F 38.3 °F 25% 30.26 in 10.0 mi ENE 3.5 mph - N/A   Clear
12:15 PM 77.9 °F 38.5 °F 24% 30.25 in 10.0 mi NE 6.9 mph - N/A   Clear
12:35 PM 78.1 °F 37.9 °F 24% 30.24 in 10.0 mi East 9.2 mph - N/A   Clear
12:55 PM 78.8 °F 37.9 °F 23% 30.24 in 10.0 mi NNW 4.6 mph - N/A   Clear
1:15 PM 77.9 °F 37.6 °F 23% 30.23 in 10.0 mi North 3.5 mph - N/A   Mostly Cloudy
1:35 PM 78.6 °F 36.9 °F 22% 30.23 in 10.0 mi SW 4.6 mph - N/A   Scattered Clouds
1:55 PM 79.7 °F 36.3 °F 21% 30.22 in 10.0 mi NNW 6.9 mph - N/A   Scattered Clouds
2:15 PM 79.3 °F 36.5 °F 21% 30.21 in 10.0 mi East 6.9 mph - N/A   Scattered Clouds
2:35 PM 81.1 °F 36.5 °F 20% 30.20 in 10.0 mi ESE 6.9 mph - N/A   Scattered Clouds
2:55 PM 81.1 °F 35.8 °F 20% 30.19 in 10.0 mi NE 11.5 mph - N/A   Scattered Clouds
3:15 PM 81.7 °F 35.1 °F 19% 30.19 in 10.0 mi ENE 10.4 mph 19.6 mph N/A   Clear
3:35 PM 80.6 °F 34.5 °F 19% 30.19 in 10.0 mi East 9.2 mph 20.7 mph N/A   Scattered Clouds
3:55 PM 82.6 °F 34.0 °F 17% 30.18 in 10.0 mi SE 3.5 mph - N/A   Scattered Clouds
4:15 PM 81.3 °F 34.0 °F 18% 30.17 in 10.0 mi East 9.2 mph - N/A   Clear
4:35 PM 81.7 °F 33.8 °F 18% 30.17 in 10.0 mi NNE 3.5 mph - N/A   Clear
4:55 PM 81.9 °F 33.3 °F 17% 30.16 in 10.0 mi East 8.1 mph - N/A   Clear
5:15 PM 82.6 °F 32.7 °F 17% 30.14 in 10.0 mi East 8.1 mph - N/A   Clear
5:35 PM 82.2 °F 32.5 °F 17% 30.14 in 10.0 mi East 6.9 mph - N/A   Clear
5:55 PM 82.0 °F 32.5 °F 17% 30.14 in 10.0 mi East 8.1 mph - N/A   Clear
6:15 PM 82.0 °F 33.4 °F 17% 30.13 in 10.0 mi ESE 5.8 mph 17.3 mph N/A   Scattered Clouds
6:35 PM 80.8 °F 34.7 °F 19% 30.13 in 10.0 mi East 12.7 mph 18.4 mph N/A   Scattered Clouds
6:55 PM 80.6 °F 35.1 °F 19% 30.13 in 10.0 mi East 8.1 mph 17.3 mph N/A   Scattered Clouds
7:15 PM 79.9 °F 34.9 °F 20% 30.13 in 10.0 mi East 13.8 mph 18.4 mph N/A   Clear
7:35 PM 79.7 °F 35.2 °F 20% 30.14 in 10.0 mi East 10.4 mph - N/A   Clear
7:55 PM 78.3 °F 35.6 °F 21% 30.14 in 10.0 mi East 10.4 mph - N/A   Clear
8:15 PM 77.0 °F 35.8 °F 22% 30.14 in 10.0 mi East 10.4 mph - N/A   Clear
8:35 PM 74.8 °F 35.1 °F 23% 30.14 in 10.0 mi East 10.4 mph - N/A   Clear
8:55 PM 71.8 °F 34.7 °F 26% 30.14 in 10.0 mi ESE 6.9 mph - N/A   Clear
9:15 PM 68.9 °F 34.3 °F 28% 30.15 in 10.0 mi East 8.1 mph - N/A   Clear
9:35 PM 68.0 °F 34.3 °F 29% 30.15 in 10.0 mi East 8.1 mph - N/A   Clear
9:55 PM 65.3 °F 34.3 °F 32% 30.16 in 10.0 mi East 8.1 mph - N/A   Clear
10:15 PM 65.5 °F 34.3 °F 31% 30.16 in 10.0 mi East 8.1 mph - N/A   Clear
10:35 PM 65.3 °F 34.5 °F 32% 30.17 in 10.0 mi ESE 8.1 mph - N/A   Clear
10:55 PM 64.9 °F 35.1 °F 33% 30.18 in 10.0 mi SE 8.1 mph - N/A   Scattered Clouds
11:15 PM 64.9 °F 36.7 °F 35% 30.18 in 10.0 mi ESE 8.1 mph - N/A   Mostly Cloudy
11:35 PM 65.8 °F 36.9 °F 34% 30.18 in 10.0 mi ESE 9.2 mph - N/A   Mostly Cloudy
11:55 PM 66.4 °F 36.5 °F 33% 30.19 in 10.0 mi SE 8.1 mph - N/A   Mostly Cloudy